Time;durP1;ratioP1;P1;durP2;ratioP2;P2;SDS_P1;SDS_P2;PMS_P1;PMS_P2;Temp;Humidity;BMP_temperature;BMP_pressure;BME280_temperature;BME280_humidity;BME280_pressure;Samples;Min_cycle;Max_cycle;Signal;HPM_P1;HPM_P2
2022/08/27 00:00:30;;;;;;;2.90;1.77;;;15.50;99.90;;;;;;4999197;28;20050;-60
2022/08/27 00:02:56;;;;;;;7.03;2.30;;;15.50;99.90;;;;;;4994462;28;20045;-60
2022/08/27 00:05:22;;;;;;;4.78;2.30;;;15.50;99.90;;;;;;5001155;28;20053;-58
2022/08/27 00:07:48;;;;;;;3.10;1.90;;;15.40;99.90;;;;;;4999105;28;20041;-60
2022/08/27 00:10:18;;;;;;;4.85;2.45;;;15.40;99.90;;;;;;5000345;28;20048;-60
2022/08/27 00:12:45;;;;;;;4.03;2.20;;;15.40;99.90;;;;;;5002685;28;20045;-59
2022/08/27 00:15:11;;;;;;;3.80;2.50;;;15.30;99.90;;;;;;4998221;28;20155;-59
2022/08/27 00:17:37;;;;;;;4.65;2.83;;;15.30;99.90;;;;;;4999032;28;20046;-60
2022/08/27 00:20:05;;;;;;;4.93;2.38;;;15.30;99.90;;;;;;4995434;28;20049;-60
2022/08/27 00:22:31;;;;;;;4.28;2.30;;;15.20;99.90;;;;;;4998534;28;20078;-60
2022/08/27 00:24:57;;;;;;;5.15;2.40;;;15.20;99.90;;;;;;4997687;28;20769;-60
2022/08/27 00:27:22;;;;;;;7.13;2.65;;;15.10;99.90;;;;;;5001120;28;20050;-60
2022/08/27 00:29:49;;;;;;;4.93;2.58;;;15.10;99.90;;;;;;4999522;28;20071;-60
2022/08/27 00:32:15;;;;;;;6.95;2.90;;;15.10;99.90;;;;;;4996266;28;20056;-59
2022/08/27 00:34:41;;;;;;;4.80;2.35;;;15.10;99.90;;;;;;4985672;28;20555;-59
2022/08/27 00:37:08;;;;;;;5.00;2.65;;;15.10;99.90;;;;;;5004303;28;20110;-60
2022/08/27 00:39:35;;;;;;;6.00;2.70;;;15.00;99.90;;;;;;5002263;28;20530;-59
2022/08/27 00:42:03;;;;;;;5.68;2.63;;;14.90;99.90;;;;;;5002039;28;20875;-59
2022/08/27 00:44:30;;;;;;;3.92;2.13;;;14.90;99.90;;;;;;5000978;28;20045;-59
2022/08/27 00:47:01;;;;;;;5.43;2.65;;;14.90;99.90;;;;;;4996416;28;20046;-59
2022/08/27 00:49:53;;;;;;;5.63;2.92;;;14.90;99.90;;;;;;5000361;28;20064;-60
2022/08/27 00:52:44;;;;;;;4.85;3.10;;;14.90;99.90;;;;;;4997650;28;20432;-59
2022/08/27 00:55:17;;;;;;;6.20;3.03;;;14.80;99.90;;;;;;5000102;28;20053;-60
2022/08/27 00:57:49;;;;;;;6.43;4.00;;;14.70;99.90;;;;;;4982424;28;20049;-59
2022/08/27 01:00:18;;;;;;;7.50;3.63;;;14.70;99.90;;;;;;5012025;28;20103;-60
2022/08/27 01:02:46;;;;;;;7.20;3.88;;;14.70;99.90;;;;;;5004218;28;20312;-59
2022/08/27 01:05:15;;;;;;;5.53;3.50;;;14.70;99.90;;;;;;4998395;28;20065;-60
2022/08/27 01:07:46;;;;;;;4.75;3.50;;;14.70;99.90;;;;;;5000945;28;20060;-59
2022/08/27 01:10:16;;;;;;;6.28;3.10;;;14.60;99.90;;;;;;5001889;28;20052;-60
2022/08/27 01:12:42;;;;;;;9.18;4.20;;;14.60;99.90;;;;;;5017012;28;20084;-59
2022/08/27 01:15:12;;;;;;;7.32;4.05;;;14.60;99.90;;;;;;4996148;28;20081;-60
2022/08/27 01:17:40;;;;;;;7.20;4.20;;;14.60;99.90;;;;;;4991488;28;20152;-60
2022/08/27 01:20:12;;;;;;;7.53;4.47;;;14.60;99.90;;;;;;5002836;28;20061;-59
2022/08/27 01:23:03;;;;;;;7.85;4.80;;;14.60;99.90;;;;;;5008088;28;20053;-59
2022/08/27 01:25:29;;;;;;;6.38;4.28;;;14.60;99.90;;;;;;4997814;28;20049;-60
2022/08/27 01:27:58;;;;;;;9.73;4.78;;;14.60;99.90;;;;;;4997221;28;20049;-60
2022/08/27 01:30:24;;;;;;;7.43;4.57;;;14.60;99.90;;;;;;4993765;28;20135;-59
2022/08/27 01:32:50;;;;;;;8.88;5.10;;;14.60;99.90;;;;;;5000279;28;20049;-59
2022/08/27 01:35:19;;;;;;;6.53;4.18;;;14.60;99.90;;;;;;5003929;28;20744;-59
2022/08/27 01:37:48;;;;;;;8.63;4.50;;;14.60;99.90;;;;;;5005174;28;20049;-58
2022/08/27 01:40:16;;;;;;;8.57;4.60;;;14.60;99.90;;;;;;5003961;28;20049;-59
2022/08/27 01:42:46;;;;;;;8.18;4.32;;;14.60;99.90;;;;;;5003950;28;20049;-59
2022/08/27 01:45:15;;;;;;;8.30;4.30;;;14.70;99.90;;;;;;5001378;28;20053;-58
2022/08/27 01:47:41;;;;;;;8.40;4.38;;;14.70;99.90;;;;;;5005731;28;20041;-60
2022/08/27 01:50:13;;;;;;;5.85;3.42;;;14.70;99.90;;;;;;5004184;28;20476;-60
2022/08/27 01:52:39;;;;;;;6.07;3.35;;;14.70;99.90;;;;;;5017434;28;20054;-60
2022/08/27 01:55:08;;;;;;;7.90;3.45;;;14.70;99.90;;;;;;5000403;28;20181;-60
2022/08/27 01:57:34;;;;;;;7.05;3.33;;;14.60;99.90;;;;;;5002121;28;20038;-60
2022/08/27 02:00:04;;;;;;;4.95;3.20;;;14.60;99.90;;;;;;4997552;28;20053;-59
2022/08/27 02:02:31;;;;;;;5.85;2.97;;;14.60;99.90;;;;;;5000372;28;20171;-60
2022/08/27 02:04:57;;;;;;;5.60;3.03;;;14.60;99.90;;;;;;5002969;28;20053;-60
2022/08/27 02:07:23;;;;;;;6.40;3.28;;;14.60;99.90;;;;;;5003707;28;20052;-59
2022/08/27 02:09:49;;;;;;;5.22;3.00;;;14.60;99.90;;;;;;5003435;28;20049;-60
2022/08/27 02:12:14;;;;;;;5.63;3.30;;;14.50;99.90;;;;;;5002256;28;20077;-59
2022/08/27 02:14:40;;;;;;;5.15;3.20;;;14.50;99.90;;;;;;4999259;28;20124;-58
2022/08/27 02:17:06;;;;;;;4.38;2.67;;;14.50;99.90;;;;;;5003417;28;20085;-59
2022/08/27 02:19:32;;;;;;;4.18;2.85;;;14.50;99.90;;;;;;4999724;28;20060;-60
2022/08/27 02:21:59;;;;;;;3.83;2.55;;;14.50;99.90;;;;;;4999300;28;20041;-59
2022/08/27 02:24:28;;;;;;;6.75;2.97;;;14.50;99.90;;;;;;4999920;28;20476;-60
2022/08/27 02:26:55;;;;;;;6.38;3.08;;;14.50;99.90;;;;;;4992401;28;20076;-59
2022/08/27 02:29:21;;;;;;;5.78;3.30;;;14.40;99.90;;;;;;5000151;28;20476;-60
2022/08/27 02:31:47;;;;;;;4.60;3.13;;;14.40;99.90;;;;;;5002768;28;20065;-60
2022/08/27 02:34:13;;;;;;;5.95;3.13;;;14.40;99.90;;;;;;4986049;28;20077;-60
2022/08/27 02:36:39;;;;;;;6.15;2.88;;;14.40;99.90;;;;;;4998098;28;20877;-60
2022/08/27 02:39:05;;;;;;;5.70;3.00;;;14.40;99.90;;;;;;5005045;28;20088;-60
2022/08/27 02:41:31;;;;;;;5.60;3.30;;;14.40;99.90;;;;;;4999908;28;20053;-60
2022/08/27 02:43:57;;;;;;;4.70;3.25;;;14.30;99.90;;;;;;5000206;28;20622;-59
2022/08/27 02:46:23;;;;;;;4.32;3.30;;;14.40;99.90;;;;;;5001025;28;20499;-59
2022/08/27 02:48:49;;;;;;;6.47;3.28;;;14.40;99.90;;;;;;4999243;28;20046;-60
2022/08/27 02:51:15;;;;;;;5.35;3.47;;;14.30;99.90;;;;;;5002646;28;20048;-59
2022/08/27 02:53:42;;;;;;;3.88;2.85;;;14.40;99.90;;;;;;4997779;28;20147;-60
2022/08/27 02:56:09;;;;;;;4.45;3.03;;;14.30;99.90;;;;;;5002504;28;20064;-60
2022/08/27 02:58:35;;;;;;;4.47;2.90;;;14.30;99.90;;;;;;5006235;28;20045;-60
2022/08/27 03:01:02;;;;;;;5.40;3.13;;;14.30;99.90;;;;;;5002160;28;20045;-59
2022/08/27 03:03:29;;;;;;;3.20;2.55;;;14.30;99.90;;;;;;5002337;28;20083;-60
2022/08/27 03:05:57;;;;;;;6.35;3.22;;;14.30;99.90;;;;;;5000571;28;20046;-59
2022/08/27 03:08:25;;;;;;;4.50;2.70;;;14.30;99.90;;;;;;5000149;28;20480;-59
2022/08/27 03:10:52;;;;;;;4.88;3.13;;;14.20;99.90;;;;;;5000732;28;20041;-59
2022/08/27 03:13:18;;;;;;;4.38;2.60;;;14.20;99.90;;;;;;5002572;28;20124;-59
2022/08/27 03:15:44;;;;;;;4.97;2.72;;;14.20;99.90;;;;;;5001932;28;20135;-59
2022/08/27 03:18:18;;;;;;;3.72;2.90;;;14.10;99.90;;;;;;5003660;28;20053;-60
2022/08/27 03:20:54;;;;;;;3.85;2.55;;;14.10;99.90;;;;;;5004679;28;20541;-59
2022/08/27 03:23:27;;;;;;;6.72;2.45;;;14.10;99.90;;;;;;5000639;28;20120;-60
2022/08/27 03:25:58;;;;;;;8.13;2.63;;;14.10;99.90;;;;;;5003429;28;20110;-59
2022/08/27 03:28:29;;;;;;;5.80;2.67;;;14.00;99.90;;;;;;5004001;28;20056;-60
2022/08/27 03:30:58;;;;;;;6.45;3.00;;;14.00;99.90;;;;;;5006804;28;20760;-59
2022/08/27 03:33:25;;;;;;;3.83;2.13;;;14.00;99.90;;;;;;5000511;28;20064;-60
2022/08/27 03:35:52;;;;;;;6.65;2.42;;;14.00;99.90;;;;;;5000248;28;20139;-59
2022/08/27 03:38:18;;;;;;;5.93;2.60;;;13.90;99.90;;;;;;5007194;28;20067;-59
2022/08/27 03:40:44;;;;;;;5.85;2.67;;;14.00;99.90;;;;;;5016383;28;20049;-59
2022/08/27 03:43:15;;;;;;;5.88;2.78;;;13.90;99.90;;;;;;5000788;28;20052;-58
2022/08/27 03:45:44;;;;;;;3.63;2.17;;;13.90;99.90;;;;;;5002385;28;20158;-57
2022/08/27 03:48:12;;;;;;;5.75;2.70;;;13.90;99.90;;;;;;5004226;28;20045;-59
2022/08/27 03:50:40;;;;;;;4.25;2.30;;;13.90;99.90;;;;;;5000519;28;20041;-60
2022/08/27 03:53:07;;;;;;;4.53;2.30;;;13.80;99.90;;;;;;5003028;28;20120;-60
2022/08/27 03:55:33;;;;;;;5.07;2.40;;;13.80;99.90;;;;;;5000028;28;21134;-59
2022/08/27 03:57:59;;;;;;;2.78;2.28;;;13.80;99.90;;;;;;4999131;28;20049;-58
2022/08/27 04:00:26;;;;;;;4.20;2.38;;;13.80;99.90;;;;;;4998756;28;20057;-60
2022/08/27 04:02:53;;;;;;;3.47;2.20;;;13.80;99.90;;;;;;4995546;28;20056;-59
2022/08/27 04:05:20;;;;;;;3.72;2.38;;;13.70;99.90;;;;;;4993923;28;20049;-60
2022/08/27 04:07:46;;;;;;;3.80;2.10;;;13.70;99.90;;;;;;5000968;28;20707;-59
2022/08/27 04:10:13;;;;;;;3.72;2.20;;;13.70;99.90;;;;;;4985711;28;20053;-59
2022/08/27 04:12:39;;;;;;;5.63;2.65;;;13.70;99.90;;;;;;5000062;28;20049;-59
2022/08/27 04:15:06;;;;;;;3.95;2.50;;;13.60;99.90;;;;;;4998289;28;20045;-59
2022/08/27 04:17:32;;;;;;;3.72;2.78;;;13.60;99.90;;;;;;5000450;28;20057;-59
2022/08/27 04:19:59;;;;;;;5.75;2.85;;;13.60;99.90;;;;;;5000131;28;20115;-59
2022/08/27 04:22:25;;;;;;;8.57;2.90;;;13.60;99.90;;;;;;5001104;28;20042;-59
2022/08/27 04:24:52;;;;;;;4.72;2.35;;;13.60;99.90;;;;;;4999034;28;20091;-59
2022/08/27 04:27:19;;;;;;;5.60;2.70;;;13.50;99.90;;;;;;5002863;28;20762;-59
2022/08/27 04:29:46;;;;;;;5.82;2.80;;;13.50;99.90;;;;;;5000487;28;20126;-59
2022/08/27 04:32:13;;;;;;;6.85;2.70;;;13.50;99.90;;;;;;5001585;28;20049;-58
2022/08/27 04:34:39;;;;;;;4.10;2.42;;;13.50;99.90;;;;;;4995539;28;20503;-59
2022/08/27 04:37:05;;;;;;;6.13;2.83;;;13.50;99.90;;;;;;5001743;28;20045;-59
2022/08/27 04:39:32;;;;;;;6.50;3.05;;;13.40;99.90;;;;;;5013455;28;20053;-58
2022/08/27 04:41:59;;;;;;;6.55;2.70;;;13.50;99.90;;;;;;5009286;28;20046;-59
2022/08/27 04:44:27;;;;;;;4.22;2.50;;;13.40;99.90;;;;;;5011692;28;20141;-59
2022/08/27 04:47:01;;;;;;;3.47;2.28;;;13.40;99.90;;;;;;5010518;28;20155;-59
2022/08/27 04:49:28;;;;;;;5.65;3.20;;;13.40;99.90;;;;;;5013092;28;20210;-60
2022/08/27 04:51:55;;;;;;;6.95;2.80;;;13.40;99.90;;;;;;5012562;28;20127;-58
2022/08/27 04:54:21;;;;;;;4.22;2.63;;;13.40;99.90;;;;;;5005498;28;20069;-59
2022/08/27 04:56:47;;;;;;;5.30;2.70;;;13.50;99.90;;;;;;4998713;28;20048;-59
2022/08/27 04:59:13;;;;;;;6.40;3.20;;;13.50;99.90;;;;;;5004813;28;20075;-59
2022/08/27 05:01:40;;;;;;;8.65;3.70;;;13.60;99.90;;;;;;4999500;28;20050;-59
2022/08/27 05:04:07;;;;;;;7.28;3.50;;;13.60;99.90;;;;;;5003964;28;20058;-60
2022/08/27 05:06:35;;;;;;;4.35;3.22;;;13.70;99.90;;;;;;4985460;28;20484;-59
2022/08/27 05:09:01;;;;;;;6.63;3.00;;;13.70;99.90;;;;;;5008515;28;20419;-59
2022/08/27 05:11:31;;;;;;;6.80;3.20;;;13.70;99.90;;;;;;5005497;28;20041;-59
2022/08/27 05:14:00;;;;;;;4.32;3.15;;;13.70;99.90;;;;;;5002390;28;20046;-58
2022/08/27 05:16:26;;;;;;;5.93;3.05;;;13.80;99.90;;;;;;5005471;28;20067;-59
2022/08/27 05:18:52;;;;;;;6.25;3.53;;;13.90;99.90;;;;;;5004795;28;20060;-59
2022/08/27 05:21:22;;;;;;;6.47;3.58;;;13.90;99.90;;;;;;5004825;28;20601;-60
2022/08/27 05:23:48;;;;;;;4.28;3.15;;;13.90;99.90;;;;;;5005533;28;20038;-59
2022/08/27 05:26:14;;;;;;;7.57;3.60;;;14.00;99.90;;;;;;5003678;28;20072;-59
2022/08/27 05:28:40;;;;;;;7.22;3.75;;;14.00;99.90;;;;;;5005843;28;20138;-59
2022/08/27 05:31:10;;;;;;;7.13;3.47;;;14.10;99.90;;;;;;5019318;28;20446;-59
2022/08/27 05:33:39;;;;;;;10.63;3.60;;;14.10;99.90;;;;;;5006203;28;20046;-58
2022/08/27 05:36:07;;;;;;;4.93;3.65;;;14.20;99.90;;;;;;4999695;28;20045;-59
2022/08/27 05:38:33;;;;;;;7.50;3.53;;;14.20;99.90;;;;;;5010409;28;20539;-59
2022/08/27 05:41:07;;;;;;;6.07;3.67;;;14.30;99.90;;;;;;5001452;28;20080;-60
2022/08/27 05:43:35;;;;;;;6.07;3.42;;;14.40;99.90;;;;;;5005568;28;20496;-59
2022/08/27 05:46:06;;;;;;;6.97;3.60;;;14.40;99.90;;;;;;5020217;28;20123;-59
2022/08/27 05:48:33;;;;;;;6.40;3.70;;;14.50;99.90;;;;;;5003835;28;20495;-60
2022/08/27 05:51:13;;;;;;;8.20;3.33;;;14.40;99.90;;;;;;5003136;28;20049;-59
2022/08/27 05:53:40;;;;;;;5.82;3.67;;;14.50;99.90;;;;;;5003171;28;20058;-59
2022/08/27 05:56:19;;;;;;;10.05;3.75;;;14.60;99.90;;;;;;5005476;28;20159;-59
2022/08/27 06:01:34;;;;;;;5.63;3.45;;;14.70;99.90;;;;;;5008494;28;22619;-60
2022/08/27 06:04:01;;;;;;;8.55;3.80;;;14.80;99.90;;;;;;5010507;28;20045;-58
2022/08/27 06:06:27;;;;;;;6.45;3.70;;;14.90;99.90;;;;;;5017251;28;20574;-59
2022/08/27 06:08:54;;;;;;;5.03;3.88;;;14.90;99.90;;;;;;5018378;28;20045;-59
2022/08/27 06:11:20;;;;;;;6.30;3.75;;;15.00;99.90;;;;;;5018956;28;20053;-58
2022/08/27 06:13:47;;;;;;;6.57;3.85;;;15.10;99.90;;;;;;5021103;28;20049;-60
2022/08/27 06:16:16;;;;;;;7.75;3.63;;;15.10;99.90;;;;;;5017975;28;20045;-60
2022/08/27 06:18:45;;;;;;;8.10;3.67;;;15.20;99.90;;;;;;5014028;28;20488;-59
2022/08/27 06:21:12;;;;;;;8.82;3.70;;;15.30;99.90;;;;;;5016358;28;20045;-59
2022/08/27 06:23:38;;;;;;;6.97;3.80;;;15.30;99.90;;;;;;5015936;28;20037;-59
2022/08/27 06:26:12;;;;;;;5.40;3.63;;;15.40;99.90;;;;;;5011169;28;20052;-60
2022/08/27 06:28:40;;;;;;;7.65;3.88;;;15.50;99.90;;;;;;5010417;28;20047;-60
2022/08/27 06:31:05;;;;;;;7.88;3.88;;;15.60;99.90;;;;;;5013168;28;20080;-60
2022/08/27 06:33:31;;;;;;;6.15;3.47;;;15.60;99.90;;;;;;5014662;28;20120;-60
2022/08/27 06:36:04;;;;;;;9.43;3.50;;;15.70;99.90;;;;;;5010296;28;20103;-59
2022/08/27 06:38:30;;;;;;;13.93;3.70;;;15.80;99.90;;;;;;5009204;28;20172;-60
2022/08/27 06:40:57;;;;;;;7.38;3.15;;;15.90;99.90;;;;;;5011611;28;20056;-59
2022/08/27 06:43:24;;;;;;;7.80;3.42;;;15.90;99.90;;;;;;5015263;28;20472;-60
2022/08/27 06:45:50;;;;;;;8.60;3.53;;;16.00;99.90;;;;;;5013070;28;20081;-59
2022/08/27 06:48:17;;;;;;;7.57;3.70;;;16.10;99.90;;;;;;5014614;28;20049;-60
2022/08/27 06:50:43;;;;;;;6.70;3.38;;;16.20;99.90;;;;;;5006777;28;20055;-60
2022/08/27 06:53:10;;;;;;;5.05;3.28;;;16.30;99.90;;;;;;5012086;28;20081;-59
2022/08/27 06:55:45;;;;;;;8.63;3.33;;;16.40;99.90;;;;;;5013872;28;20058;-60
2022/08/27 06:58:11;;;;;;;7.03;2.95;;;16.60;99.90;;;;;;5014723;28;20057;-60
2022/08/27 07:00:37;;;;;;;7.95;3.30;;;16.70;99.90;;;;;;4992085;28;20057;-59
2022/08/27 07:03:05;;;;;;;6.20;2.83;;;16.80;99.90;;;;;;5013044;28;20049;-60
2022/08/27 07:05:35;;;;;;;8.52;2.83;;;16.90;99.90;;;;;;5013110;28;20053;-60
2022/08/27 07:08:02;;;;;;;6.80;2.97;;;17.00;99.90;;;;;;5004523;28;24084;-60
2022/08/27 07:10:28;;;;;;;10.65;2.97;;;17.10;99.90;;;;;;5027375;28;20054;-60
2022/08/27 07:12:54;;;;;;;5.63;2.13;;;17.20;99.90;;;;;;5015799;28;20526;-60
2022/08/27 07:15:20;;;;;;;11.63;2.38;;;17.40;99.90;;;;;;5014719;28;20373;-59
2022/08/27 07:17:46;;;;;;;6.30;1.60;;;17.50;99.90;;;;;;5011411;28;20134;-60
2022/08/27 07:20:14;;;;;;;11.07;1.90;;;17.60;99.90;;;;;;5024635;28;20049;-60
2022/08/27 07:22:41;;;;;;;8.80;2.08;;;17.60;99.90;;;;;;5021234;28;20519;-60
2022/08/27 07:25:11;;;;;;;8.23;1.75;;;17.70;99.90;;;;;;5001055;28;20511;-59
2022/08/27 07:27:38;;;;;;;10.23;1.90;;;17.80;99.90;;;;;;5009434;28;20052;-59
2022/08/27 07:30:07;;;;;;;7.55;2.00;;;17.80;99.90;;;;;;5008473;28;20077;-60
2022/08/27 07:32:33;;;;;;;13.43;2.20;;;17.90;99.90;;;;;;5009201;28;20076;-60
2022/08/27 07:34:59;;;;;;;14.80;2.30;;;17.90;99.90;;;;;;5011982;28;20355;-59
2022/08/27 07:37:25;;;;;;;11.13;2.08;;;18.00;99.90;;;;;;5010653;28;20049;-60
2022/08/27 07:39:51;;;;;;;10.25;1.90;;;18.10;99.90;;;;;;5013181;28;21820;-60
2022/08/27 07:45:01;;;;;;;9.73;2.10;;;18.20;99.90;;;;;;5014228;28;20448;-60
2022/08/27 07:47:26;;;;;;;9.68;1.90;;;18.20;99.90;;;;;;5021291;28;20044;-59
2022/08/27 07:49:52;;;;;;;9.60;1.92;;;18.20;99.90;;;;;;5015603;28;20041;-60
2022/08/27 07:52:18;;;;;;;7.25;1.95;;;18.20;99.90;;;;;;5013991;28;20143;-60
2022/08/27 07:54:44;;;;;;;7.85;1.90;;;18.20;99.90;;;;;;5012584;28;20160;-60
2022/08/27 07:57:10;;;;;;;6.18;1.70;;;18.30;99.90;;;;;;5013960;28;21438;-60
2022/08/27 07:59:36;;;;;;;10.82;1.83;;;18.30;99.90;;;;;;5011118;28;20041;-58
2022/08/27 08:02:03;;;;;;;8.63;1.55;;;18.30;99.90;;;;;;5016407;28;20466;-60
2022/08/27 08:04:28;;;;;;;5.82;1.88;;;18.30;99.90;;;;;;5011799;28;20060;-60
2022/08/27 08:06:55;;;;;;;12.90;2.00;;;18.40;99.90;;;;;;5014292;28;20041;-60
2022/08/27 08:09:22;;;;;;;6.57;1.75;;;18.40;99.90;;;;;;5010994;28;20042;-60
2022/08/27 08:11:50;;;;;;;6.35;1.70;;;18.50;99.90;;;;;;5012930;28;20037;-60
2022/08/27 08:14:16;;;;;;;11.48;1.92;;;18.70;99.90;;;;;;5016266;28;20045;-60
2022/08/27 08:16:42;;;;;;;9.93;1.50;;;18.80;99.90;;;;;;5020453;28;20060;-60
2022/08/27 08:19:08;;;;;;;6.43;2.00;;;18.80;99.90;;;;;;5016199;28;20045;-60
2022/08/27 08:21:35;;;;;;;12.18;2.03;;;19.00;99.90;;;;;;5018999;28;20884;-59
2022/08/27 08:24:01;;;;;;;6.75;1.48;;;19.00;99.90;;;;;;5015313;28;20064;-60
2022/08/27 08:26:27;;;;;;;6.22;1.50;;;19.10;99.90;;;;;;5016595;28;20092;-60
2022/08/27 08:28:53;;;;;;;13.05;1.95;;;19.10;99.90;;;;;;5019029;28;20080;-59
2022/08/27 08:31:19;;;;;;;9.02;2.10;;;19.20;99.90;;;;;;5018904;28;20575;-60
2022/08/27 08:33:47;;;;;;;12.93;2.50;;;19.20;99.90;;;;;;5016950;28;20550;-60
2022/08/27 08:36:14;;;;;;;9.20;1.73;;;19.20;99.90;;;;;;5018413;28;20049;-60
2022/08/27 08:38:41;;;;;;;4.57;1.33;;;19.30;99.90;;;;;;5018043;28;20044;-60
2022/08/27 08:41:30;;;;;;;11.48;2.08;;;19.40;99.90;;;;;;5017207;28;20050;-60
2022/08/27 08:43:58;;;;;;;10.93;2.25;;;19.40;99.90;;;;;;5020002;28;20057;-59
2022/08/27 08:46:38;;;;;;;8.35;1.83;;;19.40;99.90;;;;;;5020543;28;20044;-60
2022/08/27 08:49:33;;;;;;;10.38;1.60;;;19.30;99.60;;;;;;5018663;28;20124;-59
2022/08/27 08:52:36;;;;;;;10.32;1.70;;;19.30;99.20;;;;;;5017765;28;20057;-60
2022/08/27 08:55:01;;;;;;;7.37;1.60;;;19.30;99.20;;;;;;5016866;28;20140;-60
2022/08/27 08:57:35;;;;;;;7.88;1.88;;;19.30;99.00;;;;;;5016823;28;20057;-60
2022/08/27 09:00:06;;;;;;;8.98;1.42;;;19.20;98.90;;;;;;5016894;28;20053;-60
2022/08/27 09:02:32;;;;;;;4.18;1.20;;;19.30;98.80;;;;;;5016742;28;20606;-60
2022/08/27 09:05:04;;;;;;;5.05;1.50;;;19.30;98.80;;;;;;5018065;28;20045;-59
2022/08/27 09:07:44;;;;;;;9.75;1.63;;;19.40;98.90;;;;;;5034468;28;20049;-60
2022/08/27 09:10:19;;;;;;;6.88;1.50;;;19.40;98.70;;;;;;5016094;28;20488;-60
2022/08/27 09:12:45;;;;;;;10.77;1.83;;;19.60;98.90;;;;;;5018036;28;20053;-60
2022/08/27 09:15:20;;;;;;;10.02;2.05;;;19.80;98.70;;;;;;5017141;28;20633;-60
2022/08/27 09:17:47;;;;;;;11.02;2.10;;;20.10;98.30;;;;;;5017210;28;20049;-60
2022/08/27 09:20:18;;;;;;;4.30;1.35;;;20.10;97.70;;;;;;5017276;28;20041;-60
2022/08/27 09:23:05;;;;;;;6.75;1.90;;;20.10;97.20;;;;;;5017492;28;20043;-60
2022/08/27 09:25:37;;;;;;;9.57;1.40;;;20.10;97.20;;;;;;5018244;28;20061;-60
2022/08/27 09:29:14;;;;;;;9.02;1.42;;;20.10;97.00;;;;;;5018518;28;20063;-60
2022/08/27 09:31:05;;;;;;;9.65;1.70;;;20.00;97.10;;;;;;5013089;28;20034;-60
2022/08/27 09:33:31;;;;;;;4.88;1.50;;;19.90;97.00;;;;;;5008756;28;20408;-60
2022/08/27 09:36:02;;;;;;;6.95;1.40;;;19.90;97.00;;;;;;5017028;28;20057;-60
2022/08/27 09:38:31;;;;;;;5.13;1.42;;;19.90;97.00;;;;;;5015369;28;20060;-60
2022/08/27 09:41:01;;;;;;;5.65;1.60;;;19.90;96.90;;;;;;5019883;28;20049;-60
2022/08/27 09:43:30;;;;;;;7.00;1.65;;;19.90;96.70;;;;;;5019273;28;20049;-60
2022/08/27 09:46:04;;;;;;;5.05;1.27;;;19.90;96.50;;;;;;5018907;28;20136;-60
2022/08/27 09:48:33;;;;;;;10.90;1.33;;;19.90;96.60;;;;;;5015137;28;20091;-60
2022/08/27 09:51:01;;;;;;;5.75;1.38;;;20.00;96.50;;;;;;5015799;28;20519;-60
2022/08/27 09:53:35;;;;;;;7.80;1.85;;;20.00;96.40;;;;;;5019422;28;20481;-58
2022/08/27 09:56:06;;;;;;;6.65;1.30;;;20.00;96.10;;;;;;5023822;28;20876;-60
2022/08/27 09:58:44;;;;;;;6.28;1.40;;;20.10;96.10;;;;;;5002889;28;20929;-59
2022/08/27 10:01:22;;;;;;;8.82;1.60;;;20.20;96.10;;;;;;5019324;28;20049;-60
2022/08/27 10:03:48;;;;;;;12.57;2.22;;;20.20;96.00;;;;;;5020351;28;20050;-60
2022/08/27 10:06:26;;;;;;;5.57;1.35;;;20.20;95.80;;;;;;5018816;28;20041;-60
2022/08/27 10:08:56;;;;;;;10.15;1.90;;;20.30;95.80;;;;;;5009988;28;20056;-60
2022/08/27 10:11:49;;;;;;;9.07;1.50;;;20.40;95.90;;;;;;5015736;28;20132;-60
2022/08/27 10:14:19;;;;;;;7.32;1.90;;;20.50;95.90;;;;;;5017394;28;20041;-60
2022/08/27 10:16:52;;;;;;;9.38;1.30;;;20.60;95.80;;;;;;5013488;28;20119;-60
2022/08/27 10:19:27;;;;;;;6.78;1.33;;;20.60;95.20;;;;;;5018736;28;20053;-60
2022/08/27 10:22:15;;;;;;;6.93;1.55;;;20.60;94.90;;;;;;5013406;28;20049;-60
2022/08/27 10:24:47;;;;;;;7.60;1.48;;;20.80;94.70;;;;;;5011656;28;20049;-60
2022/08/27 10:27:19;;;;;;;6.00;1.40;;;20.80;94.30;;;;;;5016371;28;20049;-60
2022/08/27 10:30:09;;;;;;;6.90;1.25;;;20.70;94.20;;;;;;5015629;28;20543;-60
2022/08/27 10:32:50;;;;;;;7.72;1.67;;;20.70;94.20;;;;;;5017127;28;20041;-58
2022/08/27 10:35:21;;;;;;;7.28;1.10;;;20.90;94.30;;;;;;5017734;28;20050;-60
2022/08/27 10:37:58;;;;;;;7.78;1.20;;;21.10;93.20;;;;;;5014150;28;20056;-58
2022/08/27 10:40:35;;;;;;;7.70;1.25;;;21.00;92.90;;;;;;5018472;28;20052;-60
2022/08/27 10:43:06;;;;;;;5.15;1.08;;;21.00;93.10;;;;;;5009573;28;20053;-61
2022/08/27 10:45:47;;;;;;;5.47;1.27;;;20.90;93.10;;;;;;5010988;28;20050;-60
2022/08/27 10:48:28;;;;;;;7.70;1.27;;;20.90;93.10;;;;;;5007766;28;20578;-60
2022/08/27 10:51:05;;;;;;;3.35;1.15;;;21.10;93.00;;;;;;5019254;28;20601;-59
2022/08/27 10:53:50;;;;;;;7.93;1.40;;;21.20;92.60;;;;;;5018687;28;20079;-60
2022/08/27 10:56:29;;;;;;;5.15;1.67;;;21.30;92.20;;;;;;5026508;28;20045;-59
2022/08/27 10:59:14;;;;;;;6.75;1.25;;;21.50;92.20;;;;;;5015110;28;20531;-60
2022/08/27 11:01:58;;;;;;;9.20;1.30;;;21.60;91.70;;;;;;5008049;28;20041;-60
2022/08/27 11:04:29;;;;;;;5.03;1.40;;;21.60;91.70;;;;;;5013135;28;20172;-58
2022/08/27 11:07:19;;;;;;;6.97;1.52;;;21.60;91.20;;;;;;5016626;28;20054;-59
2022/08/27 11:09:47;;;;;;;10.65;1.98;;;21.70;90.90;;;;;;4995073;28;20132;-57
2022/08/27 11:12:19;;;;;;;4.68;1.20;;;21.70;90.70;;;;;;5016755;28;20523;-58
2022/08/27 11:14:59;;;;;;;7.43;1.37;;;21.60;90.20;;;;;;5017893;28;20045;-60
2022/08/27 11:17:24;;;;;;;4.82;1.20;;;21.50;90.00;;;;;;5018140;28;20052;-61
2022/08/27 11:19:54;;;;;;;4.90;1.00;;;21.80;89.30;;;;;;5008342;28;20045;-61
2022/08/27 11:22:28;;;;;;;4.47;0.90;;;22.20;89.00;;;;;;5004528;28;20156;-61
2022/08/27 11:25:05;;;;;;;3.67;1.00;;;22.60;87.70;;;;;;5012690;28;20165;-61
2022/08/27 11:27:33;;;;;;;6.82;1.27;;;22.70;86.20;;;;;;5011825;28;20040;-61
2022/08/27 11:30:06;;;;;;;6.95;1.42;;;22.60;85.70;;;;;;5008938;28;20560;-61
2022/08/27 11:33:05;;;;;;;7.50;1.40;;;22.40;85.60;;;;;;5010459;28;20048;-61
2022/08/27 11:36:09;;;;;;;8.25;1.33;;;22.20;86.40;;;;;;5012876;28;20508;-61
2022/08/27 11:38:50;;;;;;;5.93;1.50;;;22.00;87.80;;;;;;5014753;28;20102;-61
2022/08/27 11:41:30;;;;;;;7.35;1.33;;;22.10;88.20;;;;;;5014546;28;20042;-61
2022/08/27 11:43:59;;;;;;;7.97;1.50;;;22.50;88.30;;;;;;5008801;28;20532;-61
2022/08/27 11:46:45;;;;;;;5.45;1.15;;;22.80;86.50;;;;;;5012762;28;20055;-61
2022/08/27 11:49:23;;;;;;;8.63;1.33;;;23.20;86.50;;;;;;5009859;28;20132;-61
2022/08/27 11:51:57;;;;;;;7.20;1.25;;;23.60;84.80;;;;;;5029631;28;20050;-61
2022/08/27 11:54:28;;;;;;;7.30;1.95;;;23.80;83.70;;;;;;5026529;28;20053;-61
2022/08/27 11:56:54;;;;;;;6.97;1.17;;;23.70;83.10;;;;;;5010188;28;20072;-60
2022/08/27 11:59:26;;;;;;;7.43;1.30;;;23.90;83.40;;;;;;5012234;28;20050;-61
2022/08/27 12:01:54;;;;;;;11.90;1.30;;;24.20;82.20;;;;;;5015179;28;20463;-61
2022/08/27 12:04:29;;;;;;;8.15;1.27;;;24.00;81.60;;;;;;5014312;28;20464;-60
2022/08/27 12:07:26;;;;;;;2.30;0.98;;;23.80;82.30;;;;;;5018394;28;20048;-61
2022/08/27 12:09:55;;;;;;;5.63;1.38;;;23.70;81.80;;;;;;5006602;28;20049;-60
2022/08/27 12:12:47;;;;;;;5.10;1.25;;;23.60;82.40;;;;;;5015709;28;20536;-61
2022/08/27 12:15:28;;;;;;;;;;;23.70;81.20;;;;;;5015370;28;20093;-61
2022/08/27 12:18:37;;;;;;;3.95;0.90;;;23.90;81.00;;;;;;5020208;28;19920;-61
2022/08/27 12:21:17;;;;;;;5.43;0.98;;;23.90;80.30;;;;;;5014887;28;20318;-61
2022/08/27 12:23:45;;;;;;;5.28;1.25;;;24.00;78.30;;;;;;5010710;28;20033;-60
2022/08/27 12:26:41;;;;;;;4.95;1.33;;;24.00;77.50;;;;;;5015718;28;20045;-61
2022/08/27 12:29:19;;;;;;;4.80;1.00;;;24.10;78.50;;;;;;5011310;28;20719;-60
2022/08/27 12:31:47;;;;;;;6.20;1.10;;;24.00;77.20;;;;;;5020270;28;20393;-61
2022/08/27 12:34:24;;;;;;;4.78;1.00;;;23.80;77.10;;;;;;5013229;28;20380;-61
2022/08/27 12:36:52;;;;;;;3.25;0.88;;;23.90;78.00;;;;;;5013192;28;20115;-61
2022/08/27 12:39:25;;;;;;;6.05;1.02;;;23.90;77.20;;;;;;5011322;28;20132;-61
2022/08/27 12:41:52;;;;;;;5.40;1.00;;;24.10;77.10;;;;;;5015463;28;20049;-62
2022/08/27 12:44:30;;;;;;;9.15;1.20;;;24.20;76.10;;;;;;5012875;28;20056;-62
2022/08/27 12:47:15;;;;;;;6.60;1.55;;;24.00;76.10;;;;;;5014655;28;20161;-62
2022/08/27 12:49:55;;;;;;;5.15;1.38;;;23.70;75.90;;;;;;5013613;28;20137;-62
2022/08/27 12:52:43;;;;;;;5.95;1.20;;;23.40;76.10;;;;;;4985441;28;20112;-62
2022/08/27 12:55:33;;;;;;;8.25;1.65;;;23.20;77.20;;;;;;5008926;28;20065;-62
2022/08/27 12:58:18;;;;;;;8.32;1.08;;;23.10;77.70;;;;;;5007190;28;20575;-62
2022/08/27 13:01:13;;;;;;;7.10;1.15;;;23.20;77.70;;;;;;4997217;28;20896;-62
2022/08/27 13:03:52;;;;;;;5.28;1.20;;;23.30;77.70;;;;;;5008288;28;20052;-62
2022/08/27 13:06:32;;;;;;;4.65;1.25;;;23.50;77.80;;;;;;5006013;28;20103;-62
2022/08/27 13:09:01;;;;;;;7.72;1.52;;;23.50;77.40;;;;;;5014071;28;20125;-62